• Join FlightAware (Why Join?)
  • Login
  • US Flag 
01:35AM EDT


 

Airport Tracker/Info


-or-


 

Live Flight TrackerFlight Track Log ✈ SWA896 ✈ 03-May-2013 ✈ KBUF - KLAS

Flight Track Log - Related Links

Times and Time Zones

All times are in EDT time to prevent confusion due to time zone crossing. See the SWA896 flight status page for this flight to view local times or setup timezone preferences in your user account.

Time Position Orientation Groundspeed Altitude Reporting Facility
EDT Latitude Longitude Course Direction KTS MPH feet Rate Location/Type
08:44AM 42.9167 -78.7500 236° Southwest 169 194 2,100  Level Buffalo TRACON
08:45AM 42.9000 -78.7833 236° Southwest 176 203 3,400 1,800 Climbing Buffalo TRACON
08:46AM 42.8219 -78.8253 202° Southwest 237 273 5,600 2,340 Climbing Cleveland Center
08:47AM 42.7578 -78.8556 199° South 270 311 8,700 2,520 Climbing Cleveland Center
08:48AM 42.6792 -78.8886 197° South 270 311 10,700 1,380 Climbing Cleveland Center
08:49AM 42.6067 -78.9244 200° South 297 342 11,500 1,920 Climbing Cleveland Center
08:50AM 42.4886 -78.9811 199° South 351 404 14,600 2,520 Climbing Cleveland Center
08:51AM 42.4192 -79.0700 223° Southwest 391 450 16,600 1,200 Climbing Cleveland Center
08:52AM 42.4128 -79.2278 267° West 365 420 17,000 660 Climbing Cleveland Center
08:53AM 42.4122 -79.3853 270° West 390 449 18,000 840 Climbing Cleveland Center
08:54AM 42.4075 -79.5400 268° West 408 470 18,700 1,080 Climbing Cleveland Center
08:55AM 42.4047 -79.7031 269° West 425 489 20,200 1,860 Climbing Cleveland Center
08:56AM 42.4017 -79.8661 269° West 430 495 22,400 1,860 Climbing Cleveland Center
08:57AM 42.3983 -80.0350 269° West 447 514 24,000 1,440 Climbing Cleveland Center
08:58AM 42.3950 -80.2064 269° West 456 525 25,300 1,260 Climbing Cleveland Center
08:59AM 42.3892 -80.3808 267° West 465 535 26,600 1,500 Climbing Cleveland Center
09:00AM 42.3831 -80.5692 268° West 471 542 28,400 1,740 Climbing Cleveland Center
09:01AM 42.3789 -80.7406 268° West 466 536 30,100 1,500 Climbing Cleveland Center
09:02AM 42.3700 -80.9064 266° West 455 524 31,400 1,080 Climbing Cleveland Center
09:03AM 42.3675 -81.0778 269° West 455 524 32,300 900 Climbing Cleveland Center
09:04AM 42.3603 -81.2492 267° West 460 529 33,300 960 Climbing Cleveland Center
09:05AM 42.3550 -81.4206 268° West 460 529 34,300 900 Climbing Cleveland Center
09:06AM 42.3494 -81.5861 267° West 455 524 35,100 780 Climbing Cleveland Center
09:07AM 42.3417 -81.7575 267° West 460 529 35,900 420 Climbing Cleveland Center
09:08AM 42.3356 -81.9203 267° West 453 521 36,000  Climbing Cleveland Center
09:09AM 42.3294 -82.0914 267° West 458 527 36,000  Level Cleveland Center
09:10AM 42.3189 -82.2400 265° West 458 527 36,000  Level Cleveland Center
09:11AM 42.3122 -82.4056 267° West 458 527 36,000  Level Cleveland Center
09:12AM 42.3053 -82.5736 267° West 453 521 36,000  Level Cleveland Center
09:13AM 42.2983 -82.7392 267° West 453 521 36,000  Level Cleveland Center
09:14AM 42.2886 -82.9072 266° West 453 521 36,000  Level Cleveland Center
09:15AM 42.2811 -83.0753 267° West 453 521 36,000  Level Cleveland Center
09:16AM 42.2708 -83.2461 265° West 460 529 36,000  Level Cleveland Center
09:17AM 42.2628 -83.4169 266° West 465 535 36,000  Level Cleveland Center
09:18AM 42.2547 -83.5653 266° West 454 522 36,000  Level Cleveland Center
09:19AM 42.2431 -83.7697 266° West 460 529 36,000  Level Cleveland Center
09:20AM 42.2319 -83.9344 265° West 454 522 36,000  Level Cleveland Center
09:21AM 42.2231 -84.0994 266° West 454 522 36,000  Level Cleveland Center
09:22AM 42.2114 -84.2672 265° West 454 522 36,000  Level Cleveland Center
09:23AM 42.2019 -84.4319 266° West 454 522 36,000  Level Cleveland Center
09:24AM 42.1922 -84.5939 265° West 448 516 36,000  Level Cleveland Center
09:26AM 42.1700 -84.9567 265° West 432 497 36,000  Level Chicago Center
09:27AM 42.1586 -85.1150 265° West 427 491 36,000  Level Chicago Center
09:28AM 42.1472 -85.2758 265° West 430 495 36,000  Level Chicago Center
09:29AM 42.1367 -85.4383 265° West 435 501 36,000  Level Chicago Center
09:30AM 42.1219 -85.6342 264° West 438 504 36,000  Level Chicago Center
09:31AM 42.1089 -85.7989 264° West 441 507 36,000  Level Chicago Center
09:32AM 42.0958 -85.9647 264° West 444 511 36,000  Level Chicago Center
09:33AM 42.0819 -86.1392 264° West 439 505 36,000  Level Chicago Center
09:34AM 42.0689 -86.3028 264° West 440 506 36,000  Level Chicago Center
09:36AM 42.0558 -86.4661 264° West 441 507 36,000  Level Chicago Center
09:37AM 42.0458 -86.6289 265° West 442 509 36,000  Level Chicago Center
09:38AM 42.0364 -86.8028 266° West 440 506 36,000  Level Chicago Center
09:39AM 42.0256 -86.9656 265° West 440 506 36,000  Level Chicago Center
09:40AM 42.0142 -87.1283 265° West 442 509 36,000  Level Chicago Center
09:41AM 42.0014 -87.2894 264° West 439 505 36,000  Level Chicago Center
09:42AM 41.9867 -87.4819 264° West 435 501 36,000  Level Chicago Center
09:43AM 41.9747 -87.6444 264° West 439 505 36,000  Level Chicago Center
09:44AM 41.9628 -87.8061 264° West 439 505 36,000  Level Chicago Center
09:45AM 41.9500 -87.9686 264° West 442 509 36,000  Level Chicago Center
09:46AM 41.9372 -88.1286 264° West 437 503 36,000  Level Chicago Center
09:47AM 41.9217 -88.3206 264° West 435 501 36,000  Level Chicago Center
09:48AM 41.9094 -88.4814 264° West 438 504 36,000  Level Chicago Center
09:49AM 41.8956 -88.6417 263° West 438 504 36,000  Level Chicago Center
09:50AM 41.8817 -88.8025 263° West 438 504 36,000  Level Chicago Center
09:51AM 41.8681 -88.9642 264° West 439 505 36,000  Level Chicago Center
09:52AM 41.8519 -89.1578 264° West 438 504 36,000  Level Chicago Center
09:53AM 41.8381 -89.3178 263° West 436 502 36,000  Level Chicago Center
09:54AM 41.8242 -89.4761 263° West 431 496 36,000  Level Chicago Center
09:55AM 41.8086 -89.6333 262° West 428 493 36,000  Level Chicago Center
09:56AM 41.7953 -89.7956 264° West 425 489 36,000  Level Chicago Center
09:57AM 41.7797 -89.9522 262° West 425 489 36,000  Level Chicago Center
09:58AM 41.7650 -90.1092 263° West 426 490 36,000  Level Chicago Center
09:59AM 41.7497 -90.2653 263° West 425 489 36,000  Level Chicago Center
10:00AM 41.7306 -90.4583 262° West 432 497 36,000  Level Chicago Center
10:01AM 41.7144 -90.6144 262° West 427 491 36,000  Level Chicago Center
10:02AM 41.6997 -90.7636 263° West 432 497 36,000  Level Chicago Center
10:03AM 41.6828 -90.9206 262° West 430 495 36,000  Level Chicago Center
10:04AM 41.6636 -91.1106 262° West 432 497 36,000  Level Chicago Center
10:05AM 41.6453 -91.2703 261° West 434 499 36,000  Level Chicago Center
10:06AM 41.6286 -91.4314 262° West 438 504 36,000  Level Chicago Center
10:07AM 41.6119 -91.5903 262° West 436 502 36,000  Level Chicago Center
10:09AM 41.5939 -91.7517 262° West 438 504 36,000  Level Chicago Center
10:10AM 41.5753 -91.9142 261° West 443 510 36,000  Level Chicago Center
10:11AM 41.5531 -92.1081 261° West 443 510 36,000  Level Chicago Center
10:12AM 41.5350 -92.2697 262° West 443 510 36,000  Level Chicago Center
10:13AM 41.5156 -92.4322 261° West 445 512 36,000  Level Chicago Center
10:14AM 41.4972 -92.5936 261° West 444 511 36,000  Level Chicago Center
10:15AM 41.4800 -92.7372 261° West 443 510 36,000  Level Minneapolis Center
10:16AM 41.4603 -92.8972 261° West 442 509 36,000  Level Minneapolis Center
10:17AM 41.4403 -93.0561 261° West 440 506 36,000  Level Minneapolis Center
10:18AM 41.4214 -93.2150 261° West 440 506 36,000  Level Minneapolis Center
10:19AM 41.3969 -93.4069 260° West 441 507 36,000  Level Minneapolis Center
10:20AM 41.3767 -93.5658 260° West 440 506 36,000  Level Minneapolis Center
10:21AM 41.3569 -93.7233 261° West 438 504 36,000  Level Minneapolis Center
10:22AM 41.3356 -93.8836 260° West 441 507 36,000  Level Minneapolis Center
10:23AM 41.3158 -94.0425 261° West 441 507 36,000  Level Minneapolis Center
10:24AM 41.2936 -94.2017 260° West 442 509 36,000  Level Minneapolis Center
10:25AM 41.2703 -94.3783 260° West 440 506 36,000  Level Minneapolis Center
10:26AM 41.2439 -94.5739 260° West 445 512 36,000  Level Minneapolis Center
10:27AM 41.2217 -94.7364 260° West 446 513 36,000  Level Minneapolis Center
10:28AM 41.1989 -94.8994 260° West 447 514 36,000  Level Minneapolis Center
10:29AM 41.1711 -95.0961 259° West 450 518 36,000  Level Minneapolis Center
10:30AM 41.1467 -95.2592 259° West 450 518 36,000  Level Minneapolis Center
10:31AM 41.1236 -95.4222 259° West 448 516 36,000  Level Minneapolis Center
10:32AM 41.0992 -95.5858 259° West 449 517 36,000  Level Minneapolis Center
10:33AM 41.0747 -95.7483 259° West 447 514 36,000  Level Minneapolis Center
10:34AM 41.0506 -95.9142 259° West 450 518 36,000  Level Minneapolis Center
10:35AM 41.0258 -96.0794 259° West 453 521 36,000  Level Minneapolis Center
10:36AM 41.0003 -96.2458 259° West 455 524 36,000  Level Minneapolis Center
10:37AM 40.9747 -96.4125 259° West 458 527 36,000  Level Minneapolis Center
10:38AM 40.9492 -96.5800 259° West 461 531 36,000  Level Minneapolis Center
10:39AM 40.9225 -96.7461 258° West 462 532 36,000  Level Minneapolis Center
10:40AM 40.8789 -96.9392 253° West 458 527 36,000  Level Minneapolis Center
10:41AM 40.8464 -97.1006 255° West 456 525 36,000  Level Minneapolis Center
10:42AM 40.8150 -97.2644 256° West 457 526 36,000  Level Minneapolis Center
10:43AM 40.7864 -97.4114 256° West 459 528 36,000  Level Minneapolis Center
10:44AM 40.7467 -97.6108 255° West 465 535 36,000  Level Minneapolis Center
10:46AM 40.7128 -97.7778 255° West 468 539 36,000  Level Minneapolis Center
10:47AM 40.6778 -97.9439 255° West 469 540 36,000  Level Minneapolis Center
10:48AM 40.6436 -98.1103 255° West 468 539 36,000  Level Minneapolis Center
10:49AM 40.6103 -98.2731 255° West 462 532 36,000  Level Minneapolis Center
10:50AM 40.5764 -98.4361 255° West 460 529 36,000  Level Minneapolis Center
10:51AM 40.5353 -98.6322 255° West 460 529 36,000  Level Minneapolis Center
10:52AM 40.5019 -98.7944 255° West 459 528 36,000  Level Minneapolis Center
10:53AM 40.4675 -98.9542 254° West 454 522 36,000  Level Minneapolis Center
10:54AM 40.4325 -99.1158 254° West 457 526 36,000  Level Minneapolis Center
10:55AM 40.4047 -99.2431 254° West 452 520 36,000  Level Denver Center
10:56AM 40.3631 -99.4358 254° West 454 522 36,000  Level Denver Center
10:57AM 40.3261 -99.5958 253° West 457 526 36,000  Level Denver Center
10:58AM 40.2922 -99.7564 255° West 457 526 36,000  Level Denver Center
10:59AM 40.2561 -99.9119 253° West 458 527 36,000  Level Denver Center
11:00AM 40.2158 -100.0906 254° West 458 527 36,000  Level Denver Center
11:01AM 40.1811 -100.2458 254° West 461 531 36,000  Level Denver Center
11:02AM 40.1397 -100.4283 254° West 466 536 36,000  Level Denver Center
11:03AM 40.1047 -100.5800 253° West 459 528 36,000  Level Denver Center
11:04AM 40.0631 -100.7592 253° West 460 529 36,000  Level Denver Center
11:05AM 40.0264 -100.9128 253° West 461 531 36,000  Level Denver Center
11:06AM 39.9850 -101.0903 253° West 459 528 36,000  Level Denver Center
11:07AM 39.9489 -101.2403 253° West 455 524 36,000  Level Denver Center
11:08AM 39.9131 -101.3953 253° West 464 534 36,000  Level Denver Center
11:09AM 39.8703 -101.5722 253° West 461 531 36,000  Level Denver Center
11:10AM 39.8336 -101.7228 252° West 457 526 36,000  Level Denver Center
11:11AM 39.7908 -101.8989 253° West 456 525 36,000  Level Denver Center
11:12AM 39.7550 -102.0472 253° West 453 521 36,000  Level Denver Center
11:13AM 39.7106 -102.2197 252° West 449 517 36,000  Level Denver Center
11:14AM 39.6731 -102.3697 252° West 453 521 36,000  Level Denver Center
11:15AM 39.6300 -102.5458 252° West 458 527 36,000  Level Denver Center
11:16AM 39.5914 -102.6978 252° West 459 528 36,000  Level Denver Center
11:18AM 39.5519 -102.8561 252° West 458 527 36,000  Level Denver Center
11:19AM 39.5119 -103.0131 252° West 455 524 36,000  Level Denver Center
11:20AM 39.4722 -103.1667 252° West 448 516 36,000  Level Denver Center
11:21AM 39.4264 -103.3433 251° West 439 505 36,000  Level Denver Center
11:22AM 39.3878 -103.4956 252° West 441 507 36,000  Level Denver Center
11:23AM 39.3469 -103.6481 251° West 444 511 36,000  Level Denver Center
11:24AM 39.3072 -103.7997 251° West 442 509 36,000  Level Denver Center
11:25AM 39.2664 -103.9542 251° West 447 514 36,000  Level Denver Center
11:26AM 39.2247 -104.1086 251° West 450 518 36,000  Level Denver Center
11:27AM 39.1831 -104.2644 251° West 453 521 36,000  Level Denver Center
11:28AM 39.1419 -104.4169 251° West 445 512 36,000  Level Denver Center
11:29AM 39.1003 -104.5711 251° West 449 517 36,000  Level Denver Center
11:30AM 39.0514 -104.7481 250° West 443 510 36,000  Level Denver Center
11:31AM 39.0100 -104.8997 251° West 442 509 36,000  Level Denver Center
11:32AM 38.9683 -105.0500 250° West 442 509 36,000  Level Denver Center
11:33AM 38.9269 -105.2003 251° West 443 510 36,000  Level Denver Center
11:34AM 38.8850 -105.3489 250° West 440 506 36,000  Level Denver Center
11:35AM 38.8422 -105.4978 250° West 441 507 36,000  Level Denver Center
11:36AM 38.8011 -105.6478 251° West 441 507 36,000  Level Denver Center
11:37AM 38.7572 -105.7967 249° West 442 509 36,000  Level Denver Center
11:38AM 38.7078 -105.9717 250° West 443 510 36,000  Level Denver Center
11:39AM 38.6642 -106.1219 250° West 447 514 36,000  Level Denver Center
11:40AM 38.6253 -106.2581 250° West 446 513 36,000  Level Denver Center
11:41AM 38.5811 -106.4078 249° West 445 512 36,000  Level Denver Center
11:42AM 38.5458 -106.5597 254° West 443 510 36,000  Level Denver Center
11:43AM 38.5114 -106.7119 254° West 443 510 36,000  Level Denver Center
11:44AM 38.4703 -106.8947 254° West 446 513 36,000  Level Denver Center
11:45AM 38.4344 -107.0483 253° West 447 514 36,000  Level Denver Center
11:46AM 38.3958 -107.2189 254° West 453 521 36,000  Level Denver Center
11:47AM 38.3614 -107.3686 254° West 458 527 36,000  Level Denver Center
11:49AM 38.3269 -107.5153 253° West 455 524 36,000  Level Denver Center
11:50AM 38.2875 -107.6853 254° West 451 519 36,000  Level Denver Center
11:51AM 38.2531 -107.8311 253° West 450 518 36,000  Level Denver Center
11:52AM 38.2125 -108.0047 253° West 453 521 36,000  Level Denver Center
11:53AM 38.1778 -108.1503 253° West 451 519 36,000  Level Denver Center
11:54AM 38.1364 -108.3206 253° West 452 520 36,000  Level Denver Center
11:55AM 38.1014 -108.4675 253° West 453 521 36,000  Level Denver Center
11:56AM 38.0608 -108.6339 253° West 450 518 36,000  Level Denver Center
11:57AM 38.0258 -108.7764 253° West 446 513 36,000  Level Denver Center
11:58AM 37.9842 -108.9436 253° West 446 513 36,000  Level Denver Center
11:59AM 37.9478 -109.0875 252° West 449 517 36,000  Level Denver Center
12:00PM 37.9064 -109.2558 253° West 448 516 36,000  Level Denver Center
12:01PM 37.8708 -109.3981 252° West 447 514 36,000 -300 Level Denver Center
12:02PM 37.8275 -109.5669 252° West 451 519 35,400 -780 Descending Denver Center
12:03PM 37.7911 -109.7103 252° West 450 518 34,500 -720 Descending Denver Center
12:04PM 37.7486 -109.8789 252° West 452 520 34,000 -300 Descending Denver Center
12:05PM 37.7117 -110.0225 252° West 451 519 34,000  Level Denver Center
12:06PM 37.6672 -110.1911 252° West 453 521 34,000  Level Denver Center
12:07PM 37.6300 -110.3356 252° West 454 522 34,000  Level Denver Center
12:08PM 37.5858 -110.5039 252° West 453 521 34,000  Level Denver Center
12:09PM 37.5447 -110.6583 251° West 453 521 34,000  Level Denver Center
12:10PM 37.5050 -110.8094 252° West 455 524 34,000  Level Denver Center
12:11PM 37.4653 -110.9597 252° West 453 521 34,000 -120 Level Denver Center
12:12PM 37.4239 -111.1103 251° West 454 522 33,800 -600 Descending Denver Center
12:13PM 37.3831 -111.2628 251° West 459 528 32,800 -900 Descending Denver Center
12:14PM 37.3422 -111.4144 251° West 459 528 32,000 -420 Descending Denver Center
12:15PM 37.2917 -111.5967 251° West 459 528 32,000  Level Denver Center
12:16PM 37.2508 -111.7492 251° West 461 531 32,000  Level Denver Center
12:17PM 37.2106 -111.8997 251° West 456 525 32,000  Level Denver Center
12:18PM 37.1986 -111.9314 245° Southwest 460 529 32,000  Level Los Angeles Center
12:19PM 37.1469 -112.1139 250° West 462 532 32,000  Level Los Angeles Center
12:20PM 37.1047 -112.2656 251° West 460 529 32,000  Level Los Angeles Center
12:21PM 37.0619 -112.4169 251° West 459 528 32,000  Level Los Angeles Center
12:22PM 37.0186 -112.5683 250° West 459 528 32,000  Level Los Angeles Center
12:23PM 36.9753 -112.7189 250° West 458 527 32,000  Level Los Angeles Center
12:24PM 36.9328 -112.8703 251° West 459 528 32,000  Level Los Angeles Center
12:25PM 36.8889 -113.0206 250° West 459 528 32,000  Level Los Angeles Center
12:26PM 36.8361 -113.2008 250° West 460 529 32,000 -840 Level Los Angeles Center
12:27PM 36.7917 -113.3517 250° West 462 532 30,300 -2,040 Descending Los Angeles Center
12:28PM 36.7478 -113.5011 250° West 460 529 27,800 -2,400 Descending Los Angeles Center
12:29PM 36.7056 -113.6456 250° West 448 516 25,400 -2,340 Descending Los Angeles Center
12:30PM 36.6639 -113.7836 249° West 431 496 23,000 -2,220 Descending Los Angeles Center
12:31PM 36.6256 -113.9150 250° West 413 475 20,800 -2,340 Descending Los Angeles Center
12:32PM 36.5792 -114.0669 249° West 395 455 18,200 -2,340 Descending Los Angeles Center
12:33PM 36.5314 -114.1811 243° Southwest 377 434 16,000 -2,040 Descending Los Angeles Center
12:34PM 36.4839 -114.2847 240° Southwest 368 423 14,000 -1,860 Descending Los Angeles Center
12:35PM 36.4358 -114.3961 242° Southwest 353 406 12,400 -1,380 Descending Los Angeles Center
12:36PM 36.3797 -114.4742 228° Southwest 315 362 11,400 -1,320 Descending Los Angeles Center
12:37PM 36.2867 -114.5031 194° South 302 348 9,700 -1,380 Descending Los Angeles Center
12:38PM 36.2056 -114.5281 194° South 298 343 8,500 -840 Descending Los Angeles Center
12:39PM 36.1528 -114.6019 229° Southwest 290 334 8,000 -300 Descending Los Angeles Center
12:41PM 36.1017 -114.6800 231° Southwest 287 330 7,900 -180 Descending Los Angeles Center
12:41PM 36.0733 -114.7511 244° Southwest 253 291 7,700 -600 Descending Los Angeles Center
12:42PM 36.0744 -114.8253 271° West 240 276 6,900 -780 Descending Los Angeles Center
12:43PM 36.0739 -114.8342 266° West 248 285 6,800 -1,200 Descending Los Angeles Center
12:43PM 36.0739 -114.9108 270° West 242 278 5,700 -1,680 Descending Los Angeles Center
12:44PM 36.0742 -114.9347 271° West 244 281 5,100 -1,500 Descending Los Angeles Center
12:45PM 36.0728 -115.0044 269° West 223 257 4,000 -1,200 Descending Los Angeles Center
12:46PM 36.0742 -115.0703 272° West 186 214 3,000 -900 Descending Los Angeles Center
12:47PM 36.0747 -115.1308 271° West 176 203 2,000 -840 Descending Los Angeles Center
12:49PM 36.0667 -115.1500 219° Southwest  Level FlightAware Approximate